sensor_id;sensor_type;location;lat;lon;timestamp;pressure;altitude;pressure_sealevel;temperature;humidity
56402;BME280;42299;35.160;26.100;2022-11-15T00:00:57;101596.09;;;15.88;100.00
56402;BME280;42299;35.160;26.100;2022-11-15T00:02:39;101592.56;;;15.88;100.00
56402;BME280;42299;35.160;26.100;2022-11-15T00:04:18;101585.44;;;15.87;100.00
56402;BME280;42299;35.160;26.100;2022-11-15T00:06:01;101594.31;;;15.89;100.00
56402;BME280;42299;35.160;26.100;2022-11-15T00:07:42;101586.34;;;15.90;100.00
56402;BME280;42299;35.160;26.100;2022-11-15T00:09:25;101589.00;;;15.90;100.00
56402;BME280;42299;35.160;26.100;2022-11-15T00:11:08;101593.47;;;15.91;100.00
56402;BME280;42299;35.160;26.100;2022-11-15T00:12:50;101590.81;;;15.96;100.00
56402;BME280;42299;35.160;26.100;2022-11-15T00:14:31;101589.06;;;15.98;100.00
56402;BME280;42299;35.160;26.100;2022-11-15T00:16:12;101589.03;;;15.97;100.00
56402;BME280;42299;35.160;26.100;2022-11-15T00:17:53;101586.41;;;16.00;100.00
56402;BME280;42299;35.160;26.100;2022-11-15T00:19:34;101587.28;;;16.02;100.00
56402;BME280;42299;35.160;26.100;2022-11-15T00:21:15;101586.41;;;16.00;100.00
56402;BME280;42299;35.160;26.100;2022-11-15T00:22:56;101584.63;;;15.97;100.00
56402;BME280;42299;35.160;26.100;2022-11-15T00:24:39;101586.38;;;15.97;100.00
56402;BME280;42299;35.160;26.100;2022-11-15T00:26:20;101586.38;;;15.92;100.00
56402;BME280;42299;35.160;26.100;2022-11-15T00:28:01;101590.78;;;15.91;100.00
56402;BME280;42299;35.160;26.100;2022-11-15T00:29:42;101586.38;;;15.92;100.00
56402;BME280;42299;35.160;26.100;2022-11-15T00:31:23;101580.19;;;15.94;100.00
56402;BME280;42299;35.160;26.100;2022-11-15T00:33:04;101581.06;;;15.97;100.00
56402;BME280;42299;35.160;26.100;2022-11-15T00:34:44;101581.06;;;15.97;100.00
56402;BME280;42299;35.160;26.100;2022-11-15T00:36:25;101584.63;;;15.97;100.00
56402;BME280;42299;35.160;26.100;2022-11-15T00:38:06;101580.19;;;15.98;100.00
56402;BME280;42299;35.160;26.100;2022-11-15T00:39:48;101570.44;;;16.00;100.00
56402;BME280;42299;35.160;26.100;2022-11-15T00:41:29;101573.09;;;16.03;100.00
56402;BME280;42299;35.160;26.100;2022-11-15T00:43:10;101574.94;;;16.07;100.00
56402;BME280;42299;35.160;26.100;2022-11-15T00:44:51;101574.06;;;16.08;100.00
56402;BME280;42299;35.160;26.100;2022-11-15T00:46:32;101573.13;;;16.09;100.00
56402;BME280;42299;35.160;26.100;2022-11-15T00:48:13;101568.75;;;16.12;100.00
56402;BME280;42299;35.160;26.100;2022-11-15T00:49:54;101562.50;;;16.15;100.00
56402;BME280;42299;35.160;26.100;2022-11-15T00:51:34;101569.66;;;16.14;100.00
56402;BME280;42299;35.160;26.100;2022-11-15T00:53:15;101568.75;;;16.12;100.00
56402;BME280;42299;35.160;26.100;2022-11-15T00:54:58;101569.63;;;16.11;100.00
56402;BME280;42299;35.160;26.100;2022-11-15T00:56:39;101556.28;;;16.11;100.00
56402;BME280;42299;35.160;26.100;2022-11-15T00:58:20;101553.63;;;16.11;100.00
56402;BME280;42299;35.160;26.100;2022-11-15T01:00:02;101559.88;;;16.13;100.00
56402;BME280;42299;35.160;26.100;2022-11-15T01:01:43;101549.19;;;16.15;100.00
56402;BME280;42299;35.160;26.100;2022-11-15T01:03:24;101559.88;;;16.18;100.00
56402;BME280;42299;35.160;26.100;2022-11-15T01:05:05;101553.69;;;16.20;100.00
56402;BME280;42299;35.160;26.100;2022-11-15T01:06:47;101553.69;;;16.20;100.00
56402;BME280;42299;35.160;26.100;2022-11-15T01:08:28;101553.69;;;16.19;100.00
56402;BME280;42299;35.160;26.100;2022-11-15T01:10:10;101543.91;;;16.18;100.00
56402;BME280;42299;35.160;26.100;2022-11-15T01:11:52;101546.53;;;16.16;100.00
56402;BME280;42299;35.160;26.100;2022-11-15T01:13:36;101546.53;;;16.15;100.00
56402;BME280;42299;35.160;26.100;2022-11-15T01:15:17;101553.59;;;16.08;100.00
56402;BME280;42299;35.160;26.100;2022-11-15T01:16:58;101548.25;;;16.02;100.00
56402;BME280;42299;35.160;26.100;2022-11-15T01:18:40;101543.81;;;16.00;100.00
56402;BME280;42299;35.160;26.100;2022-11-15T01:20:22;101550.03;;;16.00;100.00
56402;BME280;42299;35.160;26.100;2022-11-15T01:22:03;101545.59;;;16.01;100.00
56402;BME280;42299;35.160;26.100;2022-11-15T01:23:44;101551.78;;;15.98;100.00
56402;BME280;42299;35.160;26.100;2022-11-15T01:25:26;101552.66;;;15.94;100.00
56402;BME280;42299;35.160;26.100;2022-11-15T01:27:08;101557.06;;;15.90;100.00
56402;BME280;42299;35.160;26.100;2022-11-15T01:28:49;101549.03;;;15.89;100.00
56402;BME280;42299;35.160;26.100;2022-11-15T01:30:30;101556.13;;;15.85;100.00
56402;BME280;42299;35.160;26.100;2022-11-15T01:32:11;101554.34;;;15.81;100.00
56402;BME280;42299;35.160;26.100;2022-11-15T01:33:52;101551.63;;;15.77;100.00
56402;BME280;42299;35.160;26.100;2022-11-15T01:35:33;101543.63;;;15.72;100.00
56402;BME280;42299;35.160;26.100;2022-11-15T01:37:14;101542.69;;;15.69;100.00
56402;BME280;42299;35.160;26.100;2022-11-15T01:38:56;101538.22;;;15.65;100.00
56402;BME280;42299;35.160;26.100;2022-11-15T01:40:38;101538.22;;;15.60;100.00
56402;BME280;42299;35.160;26.100;2022-11-15T01:42:20;101534.63;;;15.53;100.00
56402;BME280;42299;35.160;26.100;2022-11-15T01:46:27;101539.84;;;15.46;100.00
56402;BME280;42299;35.160;26.100;2022-11-15T01:48:10;101535.41;;;15.46;100.00
56402;BME280;42299;35.160;26.100;2022-11-15T01:49:55;101538.09;;;15.51;100.00
56402;BME280;42299;35.160;26.100;2022-11-15T01:51:38;101537.31;;;15.60;100.00
56402;BME280;42299;35.160;26.100;2022-11-15T01:53:21;101531.19;;;15.68;100.00
56402;BME280;42299;35.160;26.100;2022-11-15T01:55:06;101532.97;;;15.75;100.00
56402;BME280;42299;35.160;26.100;2022-11-15T01:56:52;101528.59;;;15.82;100.00
56402;BME280;42299;35.160;26.100;2022-11-15T01:58:34;101527.72;;;15.84;100.00
56402;BME280;42299;35.160;26.100;2022-11-15T02:00:17;101529.50;;;15.85;100.00
56402;BME280;42299;35.160;26.100;2022-11-15T02:01:58;101532.19;;;15.87;100.00
56402;BME280;42299;35.160;26.100;2022-11-15T02:03:42;101528.59;;;15.83;100.00
56402;BME280;42299;35.160;26.100;2022-11-15T02:05:27;101534.78;;;15.79;100.00
56402;BME280;42299;35.160;26.100;2022-11-15T02:07:09;101525.91;;;15.74;100.00
56402;BME280;42299;35.160;26.100;2022-11-15T02:08:51;101521.44;;;15.73;100.00
56402;BME280;42299;35.160;26.100;2022-11-15T02:10:32;101525.91;;;15.77;100.00
56402;BME280;42299;35.160;26.100;2022-11-15T02:12:18;101533.88;;;15.77;100.00
56402;BME280;42299;35.160;26.100;2022-11-15T02:14:00;101525.03;;;15.80;100.00
56402;BME280;42299;35.160;26.100;2022-11-15T02:15:43;101531.19;;;15.73;100.00
56402;BME280;42299;35.160;26.100;2022-11-15T02:17:36;101525.84;;;15.68;100.00
56402;BME280;42299;35.160;26.100;2022-11-15T02:19:40;101525.78;;;15.59;100.00
56402;BME280;42299;35.160;26.100;2022-11-15T02:21:33;101531.94;;;15.53;100.00
56402;BME280;42299;35.160;26.100;2022-11-15T02:23:50;101531.84;;;15.46;100.00
56402;BME280;42299;35.160;26.100;2022-11-15T02:25:39;101531.78;;;15.38;100.00
56402;BME280;42299;35.160;26.100;2022-11-15T02:29:48;101526.38;;;15.26;100.00
56402;BME280;42299;35.160;26.100;2022-11-15T02:31:48;101530.78;;;15.23;100.00
56402;BME280;42299;35.160;26.100;2022-11-15T02:33:37;101537.84;;;15.21;100.00
56402;BME280;42299;35.160;26.100;2022-11-15T02:35:28;101542.22;;;15.17;100.00
56402;BME280;42299;35.160;26.100;2022-11-15T02:37:15;101528.03;;;15.13;100.00
56402;BME280;42299;35.160;26.100;2022-11-15T02:39:02;101535.97;;;15.12;100.00
56402;BME280;42299;35.160;26.100;2022-11-15T02:40:52;101537.75;;;15.11;100.00
56402;BME280;42299;35.160;26.100;2022-11-15T02:42:36;101532.41;;;15.08;100.00
56402;BME280;42299;35.160;26.100;2022-11-15T02:44:38;101528.78;;;15.03;100.00
56402;BME280;42299;35.160;26.100;2022-11-15T02:46:25;101529.75;;;15.07;100.00
56402;BME280;42299;35.160;26.100;2022-11-15T02:48:25;101528.84;;;15.06;100.00
56402;BME280;42299;35.160;26.100;2022-11-15T02:50:09;101530.59;;;15.06;99.61
56402;BME280;42299;35.160;26.100;2022-11-15T02:51:51;101521.72;;;15.04;98.95
56402;BME280;42299;35.160;26.100;2022-11-15T02:53:33;101522.63;;;15.03;98.82
56402;BME280;42299;35.160;26.100;2022-11-15T02:55:28;101521.72;;;15.02;98.56
56402;BME280;42299;35.160;26.100;2022-11-15T02:57:13;101522.66;;;15.07;98.31
56402;BME280;42299;35.160;26.100;2022-11-15T02:59:19;101514.78;;;15.20;97.23
56402;BME280;42299;35.160;26.100;2022-11-15T03:01:09;101522.84;;;15.32;96.47
56402;BME280;42299;35.160;26.100;2022-11-15T03:03:08;101519.41;;;15.43;95.50
56402;BME280;42299;35.160;26.100;2022-11-15T03:04:56;101513.25;;;15.50;94.99
56402;BME280;42299;35.160;26.100;2022-11-15T03:06:44;101519.53;;;15.57;94.70
56402;BME280;42299;35.160;26.100;2022-11-15T03:08:32;101521.31;;;15.57;95.21
56402;BME280;42299;35.160;26.100;2022-11-15T03:10:18;101524.78;;;15.51;96.32
56402;BME280;42299;35.160;26.100;2022-11-15T03:12:07;101520.31;;;15.42;97.85
56402;BME280;42299;35.160;26.100;2022-11-15T03:13:55;101527.31;;;15.33;99.28
56402;BME280;42299;35.160;26.100;2022-11-15T03:15:41;101521.03;;;15.25;100.00
56402;BME280;42299;35.160;26.100;2022-11-15T03:17:28;101525.41;;;15.20;100.00
56402;BME280;42299;35.160;26.100;2022-11-15T03:19:13;101526.28;;;15.19;100.00
56402;BME280;42299;35.160;26.100;2022-11-15T03:20:58;101515.66;;;15.19;100.00
56402;BME280;42299;35.160;26.100;2022-11-15T03:22:43;101521.84;;;15.18;100.00
56402;BME280;42299;35.160;26.100;2022-11-15T03:24:25;101520.94;;;15.17;99.93
56402;BME280;42299;35.160;26.100;2022-11-15T03:26:10;101518.31;;;15.19;99.72
56402;BME280;42299;35.160;26.100;2022-11-15T03:27:54;101514.81;;;15.23;99.10
56402;BME280;42299;35.160;26.100;2022-11-15T03:29:38;101523.69;;;15.25;98.62
56402;BME280;42299;35.160;26.100;2022-11-15T03:31:21;101521.91;;;15.22;98.46
56402;BME280;42299;35.160;26.100;2022-11-15T03:33:21;101512.97;;;15.17;98.65
56402;BME280;42299;35.160;26.100;2022-11-15T03:35:06;101515.59;;;15.12;98.95
56402;BME280;42299;35.160;26.100;2022-11-15T03:36:51;101520.88;;;15.06;99.62
56402;BME280;42299;35.160;26.100;2022-11-15T03:38:34;101520.81;;;15.00;100.00
56402;BME280;42299;35.160;26.100;2022-11-15T03:40:16;101518.09;;;14.97;100.00
56402;BME280;42299;35.160;26.100;2022-11-15T03:42:04;101519.00;;;14.95;100.00
56402;BME280;42299;35.160;26.100;2022-11-15T03:43:53;101523.41;;;14.94;100.00
56402;BME280;42299;35.160;26.100;2022-11-15T03:45:40;101516.38;;;14.99;100.00
56402;BME280;42299;35.160;26.100;2022-11-15T03:47:27;101523.53;;;15.06;100.00
56402;BME280;42299;35.160;26.100;2022-11-15T03:49:12;101514.72;;;15.12;100.00
56402;BME280;42299;35.160;26.100;2022-11-15T03:50:55;101514.81;;;15.21;99.44
56402;BME280;42299;35.160;26.100;2022-11-15T03:52:39;101506.88;;;15.30;98.86
56402;BME280;42299;35.160;26.100;2022-11-15T03:54:20;101514.91;;;15.36;98.57
56402;BME280;42299;35.160;26.100;2022-11-15T03:56:01;101514.97;;;15.41;98.39
56402;BME280;42299;35.160;26.100;2022-11-15T03:57:42;101515.84;;;15.43;98.32
56402;BME280;42299;35.160;26.100;2022-11-15T03:59:23;101522.97;;;15.42;98.42
56402;BME280;42299;35.160;26.100;2022-11-15T04:01:04;101519.44;;;15.46;98.31
56402;BME280;42299;35.160;26.100;2022-11-15T04:02:45;101522.19;;;15.52;98.58
56402;BME280;42299;35.160;26.100;2022-11-15T04:04:26;101526.63;;;15.57;99.22
56402;BME280;42299;35.160;26.100;2022-11-15T04:06:07;101524.91;;;15.60;100.00
56402;BME280;42299;35.160;26.100;2022-11-15T04:07:50;101527.59;;;15.65;100.00
56402;BME280;42299;35.160;26.100;2022-11-15T04:09:31;101525.81;;;15.65;100.00
56402;BME280;42299;35.160;26.100;2022-11-15T04:11:12;101523.13;;;15.61;100.00
56402;BME280;42299;35.160;26.100;2022-11-15T04:12:53;101524.00;;;15.55;100.00
56402;BME280;42299;35.160;26.100;2022-11-15T04:14:34;101526.56;;;15.50;100.00
56402;BME280;42299;35.160;26.100;2022-11-15T04:16:15;101522.09;;;15.46;100.00
56402;BME280;42299;35.160;26.100;2022-11-15T04:17:57;101533.63;;;15.45;100.00
56402;BME280;42299;35.160;26.100;2022-11-15T04:19:38;101524.78;;;15.48;100.00
56402;BME280;42299;35.160;26.100;2022-11-15T04:21:36;101520.41;;;15.53;100.00
56402;BME280;42299;35.160;26.100;2022-11-15T04:23:36;101524.03;;;15.61;100.00
56402;BME280;42299;35.160;26.100;2022-11-15T04:25:35;101518.72;;;15.66;98.56
56402;BME280;42299;35.160;26.100;2022-11-15T04:27:16;101518.75;;;15.70;97.35
56402;BME280;42299;35.160;26.100;2022-11-15T04:28:56;101520.56;;;15.74;96.61
56402;BME280;42299;35.160;26.100;2022-11-15T04:30:55;101522.31;;;15.75;96.22
56402;BME280;42299;35.160;26.100;2022-11-15T04:32:35;101520.56;;;15.77;95.86
56402;BME280;42299;35.160;26.100;2022-11-15T04:34:16;101520.56;;;15.77;95.84
56402;BME280;42299;35.160;26.100;2022-11-15T04:35:57;101519.72;;;15.81;94.91
56402;BME280;42299;35.160;26.100;2022-11-15T04:37:56;101520.66;;;15.86;93.97
56402;BME280;42299;35.160;26.100;2022-11-15T04:39:39;101515.34;;;15.88;93.27
56402;BME280;42299;35.160;26.100;2022-11-15T04:41:19;101511.78;;;15.90;92.72
56402;BME280;42299;35.160;26.100;2022-11-15T04:43:00;101507.34;;;15.91;92.00
56402;BME280;42299;35.160;26.100;2022-11-15T04:44:41;101519.81;;;15.93;91.76
56402;BME280;42299;35.160;26.100;2022-11-15T04:46:21;101520.69;;;15.94;91.36
56402;BME280;42299;35.160;26.100;2022-11-15T04:48:03;101513.59;;;15.94;91.35
56402;BME280;42299;35.160;26.100;2022-11-15T04:49:44;101518.00;;;15.91;91.79
56402;BME280;42299;35.160;26.100;2022-11-15T04:51:25;101518.84;;;15.84;92.35
56402;BME280;42299;35.160;26.100;2022-11-15T04:53:05;101523.25;;;15.79;93.21
56402;BME280;42299;35.160;26.100;2022-11-15T04:54:48;101524.09;;;15.72;94.26
56402;BME280;42299;35.160;26.100;2022-11-15T04:56:29;101532.91;;;15.63;95.00
56402;BME280;42299;35.160;26.100;2022-11-15T04:58:09;101529.31;;;15.58;95.01
56402;BME280;42299;35.160;26.100;2022-11-15T04:59:50;101530.16;;;15.52;95.16
56402;BME280;42299;35.160;26.100;2022-11-15T05:01:31;101519.47;;;15.48;95.49
56402;BME280;42299;35.160;26.100;2022-11-15T05:03:12;101527.44;;;15.48;95.01
56402;BME280;42299;35.160;26.100;2022-11-15T05:05:10;101523.00;;;15.47;94.82
56402;BME280;42299;35.160;26.100;2022-11-15T05:06:51;101526.56;;;15.50;95.08
56402;BME280;42299;35.160;26.100;2022-11-15T05:08:32;101531.91;;;15.52;94.68
56402;BME280;42299;35.160;26.100;2022-11-15T05:10:15;101544.38;;;15.54;94.40
56402;BME280;42299;35.160;26.100;2022-11-15T05:11:56;101533.72;;;15.56;93.92
56402;BME280;42299;35.160;26.100;2022-11-15T05:13:36;101532.91;;;15.65;93.32
56402;BME280;42299;35.160;26.100;2022-11-15T05:15:16;101537.44;;;15.76;92.43
56402;BME280;42299;35.160;26.100;2022-11-15T05:16:58;101537.53;;;15.87;91.71
56402;BME280;42299;35.160;26.100;2022-11-15T05:18:39;101529.59;;;15.94;91.55
56402;BME280;42299;35.160;26.100;2022-11-15T05:20:20;101534.94;;;16.01;91.60
56402;BME280;42299;35.160;26.100;2022-11-15T05:22:01;101536.75;;;16.08;91.89
56402;BME280;42299;35.160;26.100;2022-11-15T05:23:42;101533.22;;;16.15;92.41
56402;BME280;42299;35.160;26.100;2022-11-15T05:25:24;101533.28;;;16.21;92.91
56402;BME280;42299;35.160;26.100;2022-11-15T05:27:05;101537.72;;;16.25;93.53
56402;BME280;42299;35.160;26.100;2022-11-15T05:28:46;101546.59;;;16.25;94.29
56402;BME280;42299;35.160;26.100;2022-11-15T05:30:27;101546.63;;;16.27;94.60
56402;BME280;42299;35.160;26.100;2022-11-15T05:32:09;101548.41;;;16.29;94.79
56402;BME280;42299;35.160;26.100;2022-11-15T05:33:51;101543.97;;;16.30;95.43
56402;BME280;42299;35.160;26.100;2022-11-15T05:35:35;101546.66;;;16.33;96.28
56402;BME280;42299;35.160;26.100;2022-11-15T05:37:19;101543.97;;;16.36;97.01
56402;BME280;42299;35.160;26.100;2022-11-15T05:38:59;101552.00;;;16.38;97.51
56402;BME280;42299;35.160;26.100;2022-11-15T05:40:43;101556.44;;;16.37;97.69
56402;BME280;42299;35.160;26.100;2022-11-15T05:42:24;101552.88;;;16.32;98.07
56402;BME280;42299;35.160;26.100;2022-11-15T05:44:10;101561.69;;;16.25;98.37
56402;BME280;42299;35.160;26.100;2022-11-15T05:45:52;101559.00;;;16.17;98.49
56402;BME280;42299;35.160;26.100;2022-11-15T05:47:34;101568.78;;;16.18;98.87
56402;BME280;42299;35.160;26.100;2022-11-15T05:49:19;101566.16;;;16.27;99.25
56402;BME280;42299;35.160;26.100;2022-11-15T05:51:03;101570.66;;;16.38;98.13
56402;BME280;42299;35.160;26.100;2022-11-15T05:52:46;101569.91;;;16.63;96.95
56402;BME280;42299;35.160;26.100;2022-11-15T05:54:27;101558.44;;;16.96;95.66
56402;BME280;42299;35.160;26.100;2022-11-15T05:56:10;101569.16;;;17.34;94.02
56402;BME280;42299;35.160;26.100;2022-11-15T05:57:50;101569.16;;;17.60;93.02
56402;BME280;42299;35.160;26.100;2022-11-15T05:59:32;101566.53;;;17.88;92.91
56402;BME280;42299;35.160;26.100;2022-11-15T06:01:13;101572.72;;;18.10;91.35
56402;BME280;42299;35.160;26.100;2022-11-15T06:02:54;101566.44;;;18.25;89.33
56402;BME280;42299;35.160;26.100;2022-11-15T06:04:35;101565.53;;;18.30;85.99
56402;BME280;42299;35.160;26.100;2022-11-15T06:06:16;101561.94;;;18.31;84.60
56402;BME280;42299;35.160;26.100;2022-11-15T06:07:57;101566.41;;;18.32;82.95
56402;BME280;42299;35.160;26.100;2022-11-15T06:09:39;101570.91;;;18.30;82.05
56402;BME280;42299;35.160;26.100;2022-11-15T06:11:21;101561.09;;;18.29;80.79
56402;BME280;42299;35.160;26.100;2022-11-15T06:13:02;101568.25;;;18.24;80.81
56402;BME280;42299;35.160;26.100;2022-11-15T06:14:44;101569.13;;;18.20;81.19
56402;BME280;42299;35.160;26.100;2022-11-15T06:16:25;101567.38;;;18.18;81.57
56402;BME280;42299;35.160;26.100;2022-11-15T06:18:06;101566.41;;;18.32;82.26
56402;BME280;42299;35.160;26.100;2022-11-15T06:19:47;101577.06;;;18.49;81.85
56402;BME280;42299;35.160;26.100;2022-11-15T06:21:28;101575.25;;;18.51;80.86
56402;BME280;42299;35.160;26.100;2022-11-15T06:23:09;101569.94;;;18.45;80.30
56402;BME280;42299;35.160;26.100;2022-11-15T06:24:49;101576.19;;;18.41;80.35
56402;BME280;42299;35.160;26.100;2022-11-15T06:26:32;101576.16;;;18.46;80.19
56402;BME280;42299;35.160;26.100;2022-11-15T06:28:13;101579.72;;;18.63;80.60
56402;BME280;42299;35.160;26.100;2022-11-15T06:29:54;101578.72;;;18.81;80.29
56402;BME280;42299;35.160;26.100;2022-11-15T06:31:35;101589.41;;;18.87;80.27
56402;BME280;42299;35.160;26.100;2022-11-15T06:33:16;101593.84;;;18.85;80.05
56402;BME280;42299;35.160;26.100;2022-11-15T06:34:57;101590.31;;;18.78;79.38
56402;BME280;42299;35.160;26.100;2022-11-15T06:36:37;101586.78;;;18.71;79.41
56402;BME280;42299;35.160;26.100;2022-11-15T06:38:18;101587.78;;;18.57;79.67
56402;BME280;42299;35.160;26.100;2022-11-15T06:39:59;101579.78;;;18.36;79.73
56402;BME280;42299;35.160;26.100;2022-11-15T06:41:42;101596.75;;;18.24;80.20
56402;BME280;42299;35.160;26.100;2022-11-15T06:43:24;101591.41;;;18.19;81.45
56402;BME280;42299;35.160;26.100;2022-11-15T06:45:05;101594.06;;;18.22;82.44
56402;BME280;42299;35.160;26.100;2022-11-15T06:46:47;101588.75;;;18.24;83.18
56402;BME280;42299;35.160;26.100;2022-11-15T06:48:28;101587.75;;;18.46;83.50
56402;BME280;42299;35.160;26.100;2022-11-15T06:50:09;101585.00;;;18.74;81.76
56402;BME280;42299;35.160;26.100;2022-11-15T06:51:50;101587.63;;;18.86;80.00
56402;BME280;42299;35.160;26.100;2022-11-15T06:53:31;101585.88;;;18.82;78.40
56402;BME280;42299;35.160;26.100;2022-11-15T06:55:12;101582.34;;;18.74;77.95
56402;BME280;42299;35.160;26.100;2022-11-15T06:56:55;101588.59;;;18.65;77.05
56402;BME280;42299;35.160;26.100;2022-11-15T06:58:36;101579.69;;;18.67;76.86
56402;BME280;42299;35.160;26.100;2022-11-15T07:00:19;101569.84;;;18.74;75.82
56402;BME280;42299;35.160;26.100;2022-11-15T07:01:59;101577.03;;;18.70;74.90
56402;BME280;42299;35.160;26.100;2022-11-15T07:03:41;101577.00;;;18.66;74.88
56402;BME280;42299;35.160;26.100;2022-11-15T07:05:22;101579.69;;;18.66;73.99
56402;BME280;42299;35.160;26.100;2022-11-15T07:07:03;101575.22;;;18.68;73.78
56402;BME280;42299;35.160;26.100;2022-11-15T07:08:44;101585.88;;;18.79;73.74
56402;BME280;42299;35.160;26.100;2022-11-15T07:10:25;101586.66;;;18.97;74.57
56402;BME280;42299;35.160;26.100;2022-11-15T07:12:08;101575.91;;;19.06;74.48
56402;BME280;42299;35.160;26.100;2022-11-15T07:13:49;101587.50;;;19.05;74.31
56402;BME280;42299;35.160;26.100;2022-11-15T07:15:29;101583.94;;;19.05;74.78
56402;BME280;42299;35.160;26.100;2022-11-15T07:17:10;101582.19;;;19.02;75.06
56402;BME280;42299;35.160;26.100;2022-11-15T07:18:51;101578.66;;;18.96;76.27
56402;BME280;42299;35.160;26.100;2022-11-15T07:20:32;101584.00;;;18.93;77.45
56402;BME280;42299;35.160;26.100;2022-11-15T07:22:13;101575.09;;;18.91;77.62
56402;BME280;42299;35.160;26.100;2022-11-15T07:23:54;101577.78;;;18.94;77.98
56402;BME280;42299;35.160;26.100;2022-11-15T07:25:36;101580.38;;;19.07;78.62
56402;BME280;42299;35.160;26.100;2022-11-15T07:27:18;101579.31;;;19.30;79.60
56402;BME280;42299;35.160;26.100;2022-11-15T07:29:00;101572.13;;;19.38;80.10
56402;BME280;42299;35.160;26.100;2022-11-15T07:30:40;101575.72;;;19.31;80.05
56402;BME280;42299;35.160;26.100;2022-11-15T07:32:21;101575.81;;;19.20;80.39
56402;BME280;42299;35.160;26.100;2022-11-15T07:34:02;101583.00;;;19.10;80.45
56402;BME280;42299;35.160;26.100;2022-11-15T07:35:43;101588.44;;;19.03;81.44
56402;BME280;42299;35.160;26.100;2022-11-15T07:37:25;101588.44;;;19.01;82.47
56402;BME280;42299;35.160;26.100;2022-11-15T07:39:06;101577.72;;;19.01;81.92
56402;BME280;42299;35.160;26.100;2022-11-15T07:40:55;101584.88;;;18.99;80.66
56402;BME280;42299;35.160;26.100;2022-11-15T07:42:37;101589.34;;;18.97;79.50
56402;BME280;42299;35.160;26.100;2022-11-15T07:44:32;101588.44;;;18.98;78.98
56402;BME280;42299;35.160;26.100;2022-11-15T07:46:14;101595.56;;;18.98;78.59
56402;BME280;42299;35.160;26.100;2022-11-15T07:47:55;101584.88;;;19.02;78.53
56402;BME280;42299;35.160;26.100;2022-11-15T07:49:36;101593.66;;;19.20;78.18
56402;BME280;42299;35.160;26.100;2022-11-15T07:51:17;101594.41;;;19.47;77.72
56402;BME280;42299;35.160;26.100;2022-11-15T07:52:59;101592.47;;;19.66;76.57
56402;BME280;42299;35.160;26.100;2022-11-15T07:54:40;101582.63;;;19.68;75.41
56402;BME280;42299;35.160;26.100;2022-11-15T07:56:21;101596.03;;;19.64;75.06
56402;BME280;42299;35.160;26.100;2022-11-15T07:58:04;101590.78;;;19.55;74.79
56402;BME280;42299;35.160;26.100;2022-11-15T07:59:45;101599.78;;;19.41;74.88
56402;BME280;42299;35.160;26.100;2022-11-15T08:01:26;101601.63;;;19.30;75.26
56402;BME280;42299;35.160;26.100;2022-11-15T08:03:08;101601.72;;;19.18;75.15
56402;BME280;42299;35.160;26.100;2022-11-15T08:04:49;101601.66;;;19.24;75.48
56402;BME280;42299;35.160;26.100;2022-11-15T08:06:29;101604.13;;;19.62;75.72
56402;BME280;42299;35.160;26.100;2022-11-15T08:08:11;101595.94;;;19.79;73.53
56402;BME280;42299;35.160;26.100;2022-11-15T08:09:51;101595.81;;;19.91;72.36
56402;BME280;42299;35.160;26.100;2022-11-15T08:11:33;101607.41;;;19.92;72.15
56402;BME280;42299;35.160;26.100;2022-11-15T08:13:16;101600.25;;;19.95;72.17
56402;BME280;42299;35.160;26.100;2022-11-15T08:14:56;101606.56;;;19.88;71.71
56402;BME280;42299;35.160;26.100;2022-11-15T08:16:37;101611.06;;;19.84;71.49
56402;BME280;42299;35.160;26.100;2022-11-15T08:18:18;101597.69;;;19.81;70.91
56402;BME280;42299;35.160;26.100;2022-11-15T08:19:59;101605.75;;;19.78;70.63
56402;BME280;42299;35.160;26.100;2022-11-15T08:21:42;101615.63;;;19.73;70.86
56402;BME280;42299;35.160;26.100;2022-11-15T08:23:23;101606.75;;;19.65;71.37
56402;BME280;42299;35.160;26.100;2022-11-15T08:25:04;101611.28;;;19.60;71.42
56402;BME280;42299;35.160;26.100;2022-11-15T08:26:45;101604.13;;;19.61;71.64
56402;BME280;42299;35.160;26.100;2022-11-15T08:28:28;101608.53;;;19.66;71.79
56402;BME280;42299;35.160;26.100;2022-11-15T08:30:10;101598.66;;;19.70;71.56
56402;BME280;42299;35.160;26.100;2022-11-15T08:31:54;101604.97;;;19.64;70.89
56402;BME280;42299;35.160;26.100;2022-11-15T08:33:35;101613.06;;;19.57;70.60
56402;BME280;42299;35.160;26.100;2022-11-15T08:35:17;101594.38;;;19.52;70.41
56402;BME280;42299;35.160;26.100;2022-11-15T08:36:58;101594.38;;;19.50;69.94
56402;BME280;42299;35.160;26.100;2022-11-15T08:38:39;101596.19;;;19.47;69.72
56402;BME280;42299;35.160;26.100;2022-11-15T08:40:20;101600.72;;;19.36;69.71
56402;BME280;42299;35.160;26.100;2022-11-15T08:42:01;101600.75;;;19.27;70.08
56402;BME280;42299;35.160;26.100;2022-11-15T08:43:44;101598.13;;;19.22;71.04
56402;BME280;42299;35.160;26.100;2022-11-15T08:45:24;101599.03;;;19.23;71.77
56402;BME280;42299;35.160;26.100;2022-11-15T08:47:05;101590.06;;;19.27;72.05
56402;BME280;42299;35.160;26.100;2022-11-15T08:48:46;101595.41;;;19.27;72.18
56402;BME280;42299;35.160;26.100;2022-11-15T08:50:27;101590.06;;;19.27;72.55
56402;BME280;42299;35.160;26.100;2022-11-15T08:52:08;101586.50;;;19.26;72.61
56402;BME280;42299;35.160;26.100;2022-11-15T08:53:50;101583.75;;;19.32;72.59